Meteorología y climatología de Navarra
Datos de la estación - Meteo Navarra

Estación de Aoiz GN

Altitud 534 m.


Datos desde el 09/11/2018 hasta el 10/11/2018 en horario solar
Los datos son PROVISIONALES

Anterior Página 1 de 1 Siguiente Descargar: Formato para Excel 2000 o superior   Formato csv   Formato para OpenOffice Calc
Fecha Temperatura Humedad relativa Radiación global Insolación Precipitación Velocidad viento 10 m Velocidad viento 10 m Dirección viento 10 m
ºC % W/m² s l/m² m/s km/h º
09/11/2018 0:00 7.5 100 0.0 0 1.3 2.8 10.0 256
09/11/2018 0:10 7.4 100 0.0 0 1.2 1.4 4.9 284
09/11/2018 0:20 7.3 100 0.0 0 0.6 1.6 5.8 310
09/11/2018 0:30 7.3 100 0.0 0 0.9 1.4 5.2 346
09/11/2018 0:40 7.3 100 0.0 0 0.8 0.9 3.1 42
09/11/2018 0:50 7.4 100 0.0 0 0.2 1.5 5.4 34
09/11/2018 1:00 7.5 100 0.0 0 0.0 2.2 7.8 30
09/11/2018 1:10 7.6 100 0.0 0 0.0 1.5 5.4 32
09/11/2018 1:20 7.5 100 0.0 0 0.0 1.3 4.7 192
09/11/2018 1:30 7.3 100 0.0 0 0.0 1.3 4.8 208
09/11/2018 1:40 7.2 100 0.0 0 0.0 0.2 0.8 253
09/11/2018 1:50 7.2 100 0.0 0 0.0 0.9 3.1 230
09/11/2018 2:00 7.2 100 0.0 0 0.0 0.6 2.0 245
09/11/2018 2:10 7.1 100 0.0 0 0.0 0.2 0.7 283
09/11/2018 2:20 7.1 100 0.0 0 0.0 0.2 0.5 281
09/11/2018 2:30 7.2 100 0.0 0 0.0 0.3 1.0 321
09/11/2018 2:40 7.1 100 0.0 0 0.0 0.9 3.3 55
09/11/2018 2:50 7.2 100 0.0 0 0.0 0.3 0.9 74
09/11/2018 3:00 7.2 100 0.0 0 0.0 0.3 1.2 241
09/11/2018 3:10 7.2 100 0.0 0 0.0 0.4 1.5 257
09/11/2018 3:20 7.3 100 0.0 0 0.0 1.1 4.0 269
09/11/2018 3:30 7.3 100 0.0 0 0.0 1.5 5.3 277
09/11/2018 3:40 7.3 100 0.0 0 0.0 1.0 3.6 283
09/11/2018 3:50 7.3 100 0.0 0 0.0 2.2 7.8 288
09/11/2018 4:00 7.3 100 0.0 0 0.0 2.1 7.6 292
09/11/2018 4:10 7.3 100 0.0 0 0.0 3.1 11.3 285
09/11/2018 4:20 7.3 100 0.0 0 0.0 1.5 5.5 293
09/11/2018 4:30 7.3 100 0.0 0 0.0 2.0 7.0 281
09/11/2018 4:40 7.3 100 0.0 0 0.0 2.7 9.7 273
09/11/2018 4:50 7.3 100 0.0 0 0.1 2.7 9.5 279
09/11/2018 5:00 7.3 100 0.0 0 0.0 2.0 7.2 292
09/11/2018 5:10 7.3 99 0.0 0 0.0 1.3 4.8 285
09/11/2018 5:20 7.3 100 0.0 0 0.0 2.6 9.4 272
09/11/2018 5:30 7.3 100 0.0 0 0.0 3.0 10.9 272
09/11/2018 5:40 7.2 100 0.0 0 0.0 2.6 9.2 285
09/11/2018 5:50 7.2 100 0.0 0 0.0 1.9 7.0 289
09/11/2018 6:00 7.2 99 0.0 0 0.0 1.6 5.8 279
09/11/2018 6:10 7.3 99 0.0 0 0.0 2.4 8.6 285
09/11/2018 6:20 7.4 98 0.0 0 0.0 2.0 7.2 285
09/11/2018 6:30 7.5 96 0.0 0 0.0 1.9 6.8 294
09/11/2018 6:40 7.9 90 0.0 0 0.0 2.8 10.1 305
09/11/2018 6:50 8.1 86 0.0 0 0.0 2.6 9.5 304
09/11/2018 7:00 8.1 86 0.0 0 0.0 2.8 10.0 304
09/11/2018 7:10 8.0 87 0.0 0 0.0 2.5 9.0 301
09/11/2018 7:20 8.0 87 11.2 0 0.0 2.2 7.9 305
09/11/2018 7:30 7.9 88 35.7 60 0.0 2.0 7.1 315
09/11/2018 7:40 7.9 88 36.4 0 0.0 1.8 6.5 290
09/11/2018 7:50 7.8 91 32.9 0 0.0 2.0 7.1 281
09/11/2018 8:00 7.9 91 33.4 0 0.0 2.3 8.4 280
09/11/2018 8:10 7.9 91 37.7 0 0.0 2.3 8.2 283
09/11/2018 8:20 8.0 89 41.7 0 0.0 2.2 8.0 293
09/11/2018 8:30 8.2 89 98.2 0 0.0 2.2 8.0 290
09/11/2018 8:40 8.4 90 124.1 254 0.0 2.3 8.3 259
09/11/2018 8:50 8.4 90 128.4 26 0.0 3.3 12.0 271
09/11/2018 9:00 8.5 91 127.1 12 0.0 3.1 11.1 276
09/11/2018 9:10 8.7 90 176.9 220 0.0 2.9 10.4 276
09/11/2018 9:20 9.3 88 407.4 600 0.0 3.2 11.4 266
09/11/2018 9:30 9.7 87 348.3 514 0.0 3.9 13.9 265
09/11/2018 9:40 9.9 84 344.4 470 0.0 5.1 18.5 259
09/11/2018 9:50 9.9 84 378.4 488 0.0 4.9 17.5 266
09/11/2018 10:00 10.2 83 384.5 460 0.0 4.5 16.2 274
09/11/2018 10:10 10.1 81 225.0 292 0.0 4.8 17.1 267
09/11/2018 10:20 9.6 84 154.5 0 0.0 5.1 18.5 272
09/11/2018 10:30 9.2 86 157.3 0 0.0 5.2 18.9 277
09/11/2018 10:40 9.3 86 211.3 102 0.0 3.7 13.2 275
09/11/2018 10:50 9.9 84 379.5 600 0.0 2.8 10.2 273
09/11/2018 11:00 10.1 81 326.2 600 0.0 2.9 10.3 272
09/11/2018 11:10 10.3 80 281.4 300 0.0 3.5 12.4 291
09/11/2018 11:20 10.2 81 248.5 194 0.0 3.2 11.5 282
09/11/2018 11:30 10.2 81 276.2 474 0.0 3.2 11.6 270
09/11/2018 11:40 10.4 79 210.3 0 0.0 3.3 11.7 275
09/11/2018 11:50 10.4 78 213.2 0 0.0 3.6 12.8 282
09/11/2018 12:00 10.6 76 207.1 0 0.0 3.0 10.9 285
09/11/2018 12:10 10.7 74 297.4 496 0.0 2.8 10.2 280
09/11/2018 12:20 11.2 71 478.5 600 0.0 2.5 9.0 281
09/11/2018 12:30 11.3 69 329.9 448 0.0 2.8 10.2 273
09/11/2018 12:40 11.5 68 355.7 600 0.0 2.0 7.3 276
09/11/2018 12:50 11.4 66 277.2 600 0.0 4.8 17.4 260
09/11/2018 13:00 11.5 69 457.6 600 0.0 4.8 17.1 259
09/11/2018 13:10 11.4 68 228.4 152 0.0 4.6 16.6 261
09/11/2018 13:20 11.0 69 182.8 0 0.0 3.2 11.6 275
09/11/2018 13:30 11.1 68 199.4 36 0.0 1.9 6.9 266
09/11/2018 13:40 11.2 68 197.9 0 0.0 2.4 8.6 271
09/11/2018 13:50 11.4 68 383.5 412 0.0 1.9 6.9 280
09/11/2018 14:00 12.1 65 296.6 260 0.0 0.8 2.8 168
09/11/2018 14:10 11.8 65 303.2 344 0.0 1.1 3.9 277
09/11/2018 14:20 12.5 61 400.7 570 0.0 1.2 4.4 274
09/11/2018 14:30 12.2 62 191.0 404 0.0 1.0 3.7 319
09/11/2018 14:40 12.2 63 321.4 600 0.0 1.2 4.3 120
09/11/2018 14:50 12.5 62 308.0 600 0.0 1.0 3.7 150
09/11/2018 15:00 12.3 62 273.5 600 0.0 1.1 3.8 114
09/11/2018 15:10 12.5 62 245.2 600 0.0 0.9 3.4 148
09/11/2018 15:20 12.7 59 218.3 600 0.0 1.3 4.5 198
09/11/2018 15:30 12.8 57 189.9 600 0.0 1.9 6.9 216
09/11/2018 15:40 12.7 54 167.7 600 0.0 3.4 12.4 231
09/11/2018 15:50 12.6 53 132.3 584 0.0 3.3 11.7 234
09/11/2018 16:00 12.3 52 70.3 278 0.0 2.8 10.0 235
09/11/2018 16:10 11.6 54 26.1 0 0.0 1.9 6.8 227
09/11/2018 16:20 11.7 57 53.9 576 0.0 1.3 4.7 250
09/11/2018 16:30 11.6 58 24.0 232 0.0 0.5 1.8 205
09/11/2018 16:40 9.9 66 0.0 0 0.0 0.6 2.1 125
09/11/2018 16:50 9.5 67 0.0 0 0.0 0.4 1.4 271
09/11/2018 17:00 8.5 73 0.0 0 0.0 0.6 2.2 284
09/11/2018 17:10 7.7 78 0.0 0 0.0 0.9 3.3 12
09/11/2018 17:20 7.4 79 0.0 0 0.0 1.2 4.4 34
09/11/2018 17:30 7.4 80 0.0 0 0.0 1.5 5.3 18
09/11/2018 17:40 7.8 76 0.0 0 0.0 0.6 2.3 6
09/11/2018 17:50 7.6 77 0.0 0 0.0 0.9 3.3 42
09/11/2018 18:00 6.9 83 0.0 0 0.0 0.9 3.3 314
09/11/2018 18:10 7.4 81 0.0 0 0.0 0.4 1.3 271
09/11/2018 18:20 7.8 80 0.0 0 0.0 1.2 4.1 270
09/11/2018 18:30 7.9 81 0.0 0 0.0 1.0 3.6 213
09/11/2018 18:40 7.6 83 0.0 0 0.0 0.4 1.4 85
09/11/2018 18:50 8.1 82 0.0 0 0.0 0.7 2.5 313
09/11/2018 19:00 8.7 78 0.0 0 0.0 0.5 1.8 184
09/11/2018 19:10 8.4 81 0.0 0 0.0 0.6 2.1 267
09/11/2018 19:20 8.5 82 0.0 0 0.0 1.2 4.2 263
09/11/2018 19:30 8.4 82 0.0 0 0.0 2.1 7.6 269
09/11/2018 19:40 8.6 80 0.0 0 0.0 2.4 8.7 272
09/11/2018 19:50 8.5 82 0.0 0 0.0 2.1 7.6 276
09/11/2018 20:00 8.5 81 0.0 0 0.0 1.1 4.1 292
09/11/2018 20:10 8.6 81 0.0 0 0.0 1.3 4.8 271
09/11/2018 20:20 8.6 82 0.0 0 0.0 0.5 1.9 60
09/11/2018 20:30 9.0 78 0.0 0 0.0 0.7 2.7 40
09/11/2018 20:40 8.9 80 0.0 0 0.0 1.0 3.5 240
09/11/2018 20:50 8.5 84 0.0 0 0.0 1.2 4.3 262
09/11/2018 21:00 8.4 83 0.0 0 0.0 1.3 4.6 276
09/11/2018 21:10 8.4 83 0.0 0 0.0 1.4 5.0 233
09/11/2018 21:20 8.5 81 0.0 0 0.0 1.3 4.8 165
09/11/2018 21:30 8.7 78 0.0 0 0.0 1.8 6.6 135
09/11/2018 21:40 9.2 74 0.0 0 0.0 2.4 8.6 124
09/11/2018 21:50 9.1 76 0.0 0 0.0 1.8 6.3 167
09/11/2018 22:00 8.9 77 0.0 0 0.0 2.2 7.8 138
09/11/2018 22:10 9.4 73 0.0 0 0.0 2.6 9.2 114
09/11/2018 22:20 9.1 75 0.0 0 0.0 3.0 10.9 148
09/11/2018 22:30 8.6 77 0.0 0 0.0 2.6 9.5 124
09/11/2018 22:40 8.6 77 0.0 0 0.0 3.1 11.3 118
09/11/2018 22:50 8.6 78 0.0 0 0.0 2.8 10.2 119
09/11/2018 23:00 8.7 77 0.0 0 0.0 3.5 12.5 114
09/11/2018 23:10 8.7 76 0.0 0 0.0 3.0 10.7 119
09/11/2018 23:20 8.7 76 0.0 0 0.0 3.5 12.6 106
09/11/2018 23:30 8.9 74 0.0 0 0.0 2.7 9.8 86
09/11/2018 23:40 8.9 75 0.0 0 0.0 3.1 11.0 109
09/11/2018 23:50 8.9 74 0.0 0 0.0 2.8 9.9 93
Anterior Página 1 de 1 Siguiente

NOTA: Tipo de datos según el color:
   - Valores diarios o 10 minutos correctos
   - Valores diarios calculados a partir de un número de datos 10 minutos menor que 144 y mayor que 120, o de un número de datos semihorarios menor que 48 y mayor que 40 (caso de las estaciones de Riegos de Navarra y del MARM)
   - Valores diez minutos estimados


Contacto        Enlaces        Aviso legal